Time;durP1;ratioP1;P1;durP2;ratioP2;P2;SDS_P1;SDS_P2;PMS_P1;PMS_P2;Temp;Humidity;BMP_temperature;BMP_pressure;BME280_temperature;BME280_humidity;BME280_pressure;Samples;Min_cycle;Max_cycle;Signal;HPM_P1;HPM_P2
2022/05/21 00:02:07;;;;;;;7.03;4.77;;;18.40;99.90;;;;;;5052221;28;20449;-80
2022/05/21 00:04:34;;;;;;;8.13;4.30;;;18.40;99.90;;;;;;5033333;28;20191;-80
2022/05/21 00:06:59;;;;;;;4.63;4.00;;;18.40;99.90;;;;;;5034106;28;20430;-80
2022/05/21 00:09:28;;;;;;;10.23;4.20;;;18.40;99.90;;;;;;5033646;28;20423;-80
2022/05/21 00:11:55;;;;;;;6.73;4.37;;;18.40;99.90;;;;;;5051465;28;20214;-80
2022/05/21 00:14:21;;;;;;;11.13;4.23;;;18.40;99.90;;;;;;5051184;28;20423;-80
2022/05/21 00:16:48;;;;;;;5.77;4.10;;;18.40;99.90;;;;;;5050892;28;20475;-80
2022/05/21 00:19:14;;;;;;;4.80;3.80;;;18.30;99.90;;;;;;5051004;28;20488;-80
2022/05/21 00:21:40;;;;;;;10.10;4.27;;;18.30;99.90;;;;;;5052858;28;20418;-81
2022/05/21 00:24:05;;;;;;;5.90;4.73;;;18.30;99.90;;;;;;5034827;28;20437;-80
2022/05/21 00:26:31;;;;;;;5.93;3.67;;;18.30;99.90;;;;;;5034141;28;20571;-80
2022/05/21 00:28:57;;;;;;;5.47;4.20;;;18.30;99.90;;;;;;5034878;28;20474;-79
2022/05/21 00:31:23;;;;;;;4.60;3.80;;;18.30;99.90;;;;;;5017589;28;20430;-81
2022/05/21 00:33:49;;;;;;;6.20;4.60;;;18.30;99.90;;;;;;5051739;28;20320;-80
2022/05/21 00:36:15;;;;;;;5.80;4.30;;;18.30;99.90;;;;;;5033659;28;20215;-81
2022/05/21 00:38:42;;;;;;;11.70;5.40;;;18.30;99.90;;;;;;5051695;28;20451;-80
2022/05/21 00:41:12;;;;;;;7.40;4.30;;;18.20;99.90;;;;;;5033415;28;20476;-80
2022/05/21 00:43:37;;;;;;;8.50;4.60;;;18.20;99.90;;;;;;5028364;28;20563;-80
2022/05/21 00:46:05;;;;;;;6.27;4.70;;;18.20;99.90;;;;;;5071628;28;20413;-80
2022/05/21 00:48:31;;;;;;;7.60;4.03;;;18.10;99.90;;;;;;5053632;28;20196;-80
2022/05/21 00:50:57;;;;;;;7.23;4.40;;;18.20;99.90;;;;;;5071714;28;20422;-80
2022/05/21 00:53:24;;;;;;;7.77;4.50;;;18.10;99.90;;;;;;5020182;28;20256;-80
2022/05/21 00:55:51;;;;;;;6.90;4.57;;;18.10;99.90;;;;;;5053432;28;20426;-80
2022/05/21 01:01:06;;;;;;;7.10;4.00;;;18.00;99.90;;;;;;5057044;28;20472;-80
2022/05/21 01:03:32;;;;;;;4.30;3.90;;;18.00;99.90;;;;;;5071680;28;20440;-80
2022/05/21 01:06:00;;;;;;;5.73;4.17;;;17.90;99.90;;;;;;5053771;28;20448;-80
2022/05/21 01:08:25;;;;;;;6.23;4.47;;;17.90;99.90;;;;;;5053944;28;20184;-80
2022/05/21 01:11:03;;;;;;;5.87;3.60;;;17.90;99.90;;;;;;5071843;28;20431;-80
2022/05/21 01:13:33;;;;;;;6.20;3.70;;;17.90;99.90;;;;;;5071409;28;20318;-80
2022/05/21 01:16:00;;;;;;;5.67;3.93;;;17.90;99.90;;;;;;5071602;28;20416;-81
2022/05/21 01:18:26;;;;;;;5.00;3.60;;;17.80;99.90;;;;;;5071526;28;20428;-80
2022/05/21 01:21:00;;;;;;;5.77;3.40;;;17.80;99.90;;;;;;5071583;28;20554;-79
2022/05/21 01:23:27;;;;;;;5.53;3.50;;;17.80;99.90;;;;;;5071592;28;20943;-80
2022/05/21 01:25:54;;;;;;;7.70;3.90;;;17.70;99.90;;;;;;5071502;28;20421;-80
2022/05/21 01:28:22;;;;;;;4.63;3.60;;;17.80;99.90;;;;;;5052673;28;20436;-80
2022/05/21 01:30:57;;;;;;;3.50;3.13;;;17.80;99.90;;;;;;5053491;28;20430;-79
2022/05/21 01:33:25;;;;;;;3.37;3.10;;;17.70;99.90;;;;;;5052765;28;20798;-79
2022/05/21 01:35:52;;;;;;;8.17;3.60;;;17.70;99.90;;;;;;5052703;28;20578;-79
2022/05/21 01:38:20;;;;;;;4.93;2.90;;;17.60;99.90;;;;;;5053007;28;20496;-80
2022/05/21 01:40:46;;;;;;;3.03;2.73;;;17.50;99.90;;;;;;5072265;28;20410;-80
2022/05/21 01:45:57;;;;;;;5.00;2.83;;;17.40;99.90;;;;;;5063203;28;20281;-80
2022/05/21 01:48:26;;;;;;;2.80;2.50;;;17.30;99.90;;;;;;5059748;28;20417;-79
2022/05/21 01:50:53;;;;;;;2.80;2.60;;;17.40;99.90;;;;;;5078161;28;20416;-80
2022/05/21 01:53:21;;;;;;;4.60;2.90;;;17.30;99.90;;;;;;5076710;28;20435;-80
2022/05/21 01:55:47;;;;;;;3.30;3.00;;;17.20;99.90;;;;;;5076334;28;20420;-81
2022/05/21 01:58:13;;;;;;;4.20;2.33;;;17.10;99.90;;;;;;5059629;28;20471;-79
2022/05/21 02:00:40;;;;;;;3.00;2.60;;;17.10;99.90;;;;;;5077463;28;20428;-80
2022/05/21 02:03:07;;;;;;;5.57;2.97;;;17.10;99.90;;;;;;5076112;28;20427;-80
2022/05/21 02:05:33;;;;;;;7.30;2.23;;;16.90;99.90;;;;;;5059099;28;20912;-79
2022/05/21 02:07:59;;;;;;;9.97;2.07;;;16.90;99.90;;;;;;5073333;28;20455;-79
2022/05/21 02:10:25;;;;;;;3.43;2.23;;;16.90;99.90;;;;;;5071782;28;20438;-80
2022/05/21 02:12:50;;;;;;;2.27;2.07;;;16.70;99.90;;;;;;5052254;28;21301;-79
2022/05/21 02:15:16;;;;;;;4.43;2.37;;;16.70;99.90;;;;;;5035693;28;20273;-80
2022/05/21 02:17:42;;;;;;;2.40;1.83;;;16.60;99.90;;;;;;5070148;28;20215;-79
2022/05/21 02:20:08;;;;;;;5.57;2.10;;;16.60;99.90;;;;;;5052138;28;20182;-79
2022/05/21 02:22:36;;;;;;;2.60;1.90;;;16.60;99.90;;;;;;5051396;28;20296;-79
2022/05/21 02:25:06;;;;;;;2.53;2.23;;;16.50;99.90;;;;;;5069538;28;20416;-80
2022/05/21 02:27:32;;;;;;;4.60;2.10;;;16.50;99.90;;;;;;5052153;28;20511;-80
2022/05/21 02:29:58;;;;;;;3.07;2.10;;;16.50;99.90;;;;;;5055033;28;20518;-80
2022/05/21 02:32:24;;;;;;;4.63;2.30;;;16.50;99.90;;;;;;5055569;28;20652;-80
2022/05/21 02:34:49;;;;;;;2.43;1.87;;;16.40;99.90;;;;;;5073916;28;20426;-80
2022/05/21 02:40:00;;;;;;;3.13;1.70;;;16.40;99.90;;;;;;5073661;28;20206;-80
2022/05/21 02:42:43;;;;;;;4.03;2.00;;;16.30;99.90;;;;;;5054999;28;21016;-79
2022/05/21 02:45:11;;;;;;;1.90;1.80;;;16.30;99.90;;;;;;5074023;28;20183;-80
2022/05/21 02:47:38;;;;;;;3.77;2.07;;;16.20;99.90;;;;;;5054740;28;20438;-80
2022/05/21 02:50:05;;;;;;;3.43;2.03;;;16.00;99.90;;;;;;5072801;28;20420;-80
2022/05/21 02:52:30;;;;;;;3.17;2.07;;;16.00;99.90;;;;;;5054692;28;20459;-80
2022/05/21 02:54:57;;;;;;;6.47;1.80;;;15.90;99.90;;;;;;5072463;28;20786;-80
2022/05/21 02:57:23;;;;;;;10.80;1.90;;;15.90;99.90;;;;;;5053782;28;20380;-80
2022/05/21 02:59:50;;;;;;;3.67;2.70;;;15.90;99.90;;;;;;5053823;28;20423;-80
2022/05/21 03:02:16;;;;;;;3.10;2.30;;;15.80;99.90;;;;;;5054165;28;20952;-80
2022/05/21 03:04:42;;;;;;;5.17;2.87;;;15.80;99.90;;;;;;5053607;28;20433;-80
2022/05/21 03:07:08;;;;;;;2.50;2.30;;;15.80;99.90;;;;;;5053745;28;20933;-80
2022/05/21 03:12:18;;;;;;;2.80;2.60;;;15.70;99.90;;;;;;5071715;28;20215;-80
2022/05/21 03:14:44;;;;;;;4.10;2.90;;;15.60;99.90;;;;;;5053205;28;20829;-80
2022/05/21 03:17:11;;;;;;;6.20;2.57;;;15.50;99.90;;;;;;5053265;28;20211;-80
2022/05/21 03:19:38;;;;;;;5.47;2.43;;;15.40;99.90;;;;;;5071034;28;20239;-81
2022/05/21 03:22:04;;;;;;;4.67;2.60;;;15.40;99.90;;;;;;5071503;28;20470;-80
2022/05/21 03:24:31;;;;;;;3.07;2.77;;;15.40;99.90;;;;;;5053321;28;20420;-80
2022/05/21 03:26:57;;;;;;;4.07;2.50;;;15.40;99.90;;;;;;5071010;28;20454;-80
2022/05/21 03:29:24;;;;;;;3.23;2.67;;;15.30;99.90;;;;;;5069400;28;20425;-80
2022/05/21 03:31:50;;;;;;;4.20;3.13;;;15.30;99.90;;;;;;5051515;28;20988;-80
2022/05/21 03:34:16;;;;;;;3.60;2.73;;;15.30;99.90;;;;;;5069533;28;20471;-80
2022/05/21 03:36:42;;;;;;;3.90;2.73;;;15.30;99.90;;;;;;5069803;28;20493;-80
2022/05/21 03:39:08;;;;;;;4.30;3.10;;;15.20;99.90;;;;;;5051560;28;21010;-80
2022/05/21 03:41:36;;;;;;;4.57;2.47;;;15.20;99.90;;;;;;5051633;28;20262;-80
2022/05/21 03:44:02;;;;;;;6.00;2.77;;;15.10;99.90;;;;;;5069243;28;20469;-80
2022/05/21 03:46:28;;;;;;;4.30;2.53;;;15.10;99.90;;;;;;5069287;28;20449;-80
2022/05/21 03:48:53;;;;;;;4.80;2.63;;;15.00;99.90;;;;;;5050837;28;20425;-80
2022/05/21 03:51:19;;;;;;;3.67;2.77;;;14.90;99.90;;;;;;5053549;28;20275;-80
2022/05/21 03:53:45;;;;;;;4.80;2.73;;;14.90;99.90;;;;;;5054292;28;20235;-80
2022/05/21 03:56:11;;;;;;;3.70;2.60;;;14.80;99.90;;;;;;5037600;28;20216;-80
2022/05/21 03:58:36;;;;;;;6.17;2.23;;;14.80;99.90;;;;;;5054154;28;20188;-80
2022/05/21 04:01:02;;;;;;;4.87;2.27;;;14.70;99.90;;;;;;5072300;28;20181;-80
2022/05/21 04:03:28;;;;;;;5.63;2.80;;;14.70;99.90;;;;;;5037609;28;20200;-80
2022/05/21 04:05:55;;;;;;;11.33;2.90;;;14.70;99.90;;;;;;5072144;28;20505;-80
2022/05/21 04:08:21;;;;;;;3.07;2.47;;;14.70;99.90;;;;;;5053769;28;20221;-80
2022/05/21 04:10:47;;;;;;;6.53;2.50;;;14.70;99.90;;;;;;5071587;28;20414;-80
2022/05/21 04:13:13;;;;;;;3.40;2.53;;;14.70;99.90;;;;;;5037424;28;20441;-80
2022/05/21 04:15:39;;;;;;;8.93;3.80;;;14.70;99.90;;;;;;5053738;28;20494;-80
2022/05/21 04:18:05;;;;;;;2.40;2.20;;;14.80;99.90;;;;;;5071665;28;20556;-80
2022/05/21 04:20:30;;;;;;;7.27;2.90;;;14.80;99.90;;;;;;5053637;28;20189;-81
2022/05/21 04:22:56;;;;;;;3.43;2.50;;;14.80;99.90;;;;;;5053432;28;20196;-80
2022/05/21 04:25:22;;;;;;;2.40;2.20;;;14.90;99.90;;;;;;5036650;28;20180;-80
2022/05/21 04:27:48;;;;;;;3.77;2.33;;;14.90;99.90;;;;;;5071409;28;20642;-80
2022/05/21 04:30:25;;;;;;;7.27;2.07;;;15.00;99.90;;;;;;5071086;28;20524;-80
2022/05/21 04:32:52;;;;;;;4.90;2.43;;;14.90;99.90;;;;;;5071135;28;20441;-80
2022/05/21 04:35:19;;;;;;;2.40;2.00;;;15.00;99.90;;;;;;5052875;28;20441;-81
2022/05/21 04:37:45;;;;;;;3.50;2.17;;;15.10;99.90;;;;;;5054222;28;20509;-80
2022/05/21 04:40:15;;;;;;;2.13;1.93;;;15.10;99.90;;;;;;5072669;28;20415;-80
2022/05/21 04:42:40;;;;;;;6.23;2.33;;;15.10;99.90;;;;;;5072455;28;20971;-80
2022/05/21 04:45:08;;;;;;;2.53;2.17;;;15.20;99.90;;;;;;5072598;28;20556;-80
2022/05/21 04:47:34;;;;;;;2.77;2.10;;;15.20;99.90;;;;;;5071686;28;20187;-80
2022/05/21 04:50:00;;;;;;;4.07;2.10;;;15.30;99.90;;;;;;5053653;28;20413;-80
2022/05/21 04:52:26;;;;;;;3.97;2.33;;;15.30;99.90;;;;;;5053436;28;20450;-80
2022/05/21 04:54:51;;;;;;;4.73;2.10;;;15.40;99.90;;;;;;5072089;28;20192;-80
2022/05/21 04:57:17;;;;;;;2.40;2.20;;;15.40;99.90;;;;;;5072069;28;20208;-80
2022/05/21 04:59:43;;;;;;;2.30;2.00;;;15.50;99.90;;;;;;5053743;28;20187;-80
2022/05/21 05:02:08;;;;;;;3.53;2.03;;;15.40;99.90;;;;;;5035783;28;20280;-80
2022/05/21 05:04:34;;;;;;;2.63;2.43;;;15.50;99.90;;;;;;5053559;28;20712;-80
2022/05/21 05:07:05;;;;;;;2.50;2.27;;;15.50;99.90;;;;;;5053613;28;20211;-80
2022/05/21 05:09:30;;;;;;;2.07;1.80;;;15.50;99.90;;;;;;5053255;28;20241;-80
2022/05/21 05:11:56;;;;;;;1.90;1.80;;;15.60;99.90;;;;;;5053182;28;20952;-80
2022/05/21 05:14:22;;;;;;;2.10;1.90;;;15.60;99.90;;;;;;5020023;28;20188;-80
2022/05/21 05:16:48;;;;;;;3.70;1.80;;;15.60;99.90;;;;;;5053020;28;20468;-80
2022/05/21 05:19:13;;;;;;;2.10;1.90;;;15.60;99.90;;;;;;5053113;28;20184;-80
2022/05/21 05:21:39;;;;;;;3.00;1.93;;;15.70;99.90;;;;;;5071028;28;20266;-80
2022/05/21 05:24:05;;;;;;;3.17;1.93;;;15.70;99.90;;;;;;5053187;28;20176;-80
2022/05/21 05:26:31;;;;;;;5.33;2.30;;;15.80;99.90;;;;;;5071083;28;20193;-80
2022/05/21 05:28:57;;;;;;;8.43;2.30;;;15.80;99.90;;;;;;5071068;28;20183;-80
2022/05/21 05:31:22;;;;;;;2.00;1.83;;;15.90;99.90;;;;;;5052730;28;20426;-80
2022/05/21 05:33:49;;;;;;;2.10;1.97;;;16.00;99.90;;;;;;5052898;28;20229;-81
2022/05/21 05:36:14;;;;;;;3.10;1.60;;;16.00;99.90;;;;;;5052970;28;20200;-80
2022/05/21 05:38:40;;;;;;;5.47;2.40;;;16.10;99.90;;;;;;5071016;28;20423;-80
2022/05/21 05:41:07;;;;;;;3.30;2.00;;;16.00;99.90;;;;;;5052756;28;20184;-81
2022/05/21 05:43:33;;;;;;;2.50;1.90;;;16.20;99.90;;;;;;5052025;28;20250;-80
2022/05/21 05:45:59;;;;;;;2.63;2.07;;;16.20;99.90;;;;;;5070752;28;20830;-80
2022/05/21 05:48:26;;;;;;;3.80;2.20;;;16.40;99.90;;;;;;5052940;28;20189;-80
2022/05/21 05:50:51;;;;;;;5.47;1.87;;;16.40;99.90;;;;;;5071122;28;20235;-80
2022/05/21 05:53:17;;;;;;;3.57;2.07;;;16.50;99.90;;;;;;5070341;28;20840;-81
2022/05/21 05:55:43;;;;;;;3.73;1.63;;;16.50;99.90;;;;;;5052509;28;20181;-79
2022/05/21 06:00:54;;;;;;;1.80;1.70;;;16.70;99.90;;;;;;5056058;28;20207;-80
2022/05/21 06:03:21;;;;;;;5.53;2.30;;;16.80;99.90;;;;;;5071130;28;20522;-81
2022/05/21 06:05:47;;;;;;;6.50;2.10;;;17.00;99.90;;;;;;5053037;28;20443;-79
2022/05/21 06:08:13;;;;;;;4.53;2.10;;;17.00;99.90;;;;;;5052594;28;20431;-79
2022/05/21 06:10:43;;;;;;;3.37;1.77;;;17.00;99.90;;;;;;5035904;28;20966;-80
2022/05/21 06:13:09;;;;;;;1.67;1.30;;;17.10;99.90;;;;;;5070101;28;20235;-79
2022/05/21 06:15:35;;;;;;;1.67;1.47;;;17.10;99.90;;;;;;5070615;28;20426;-80
2022/05/21 06:18:08;;;;;;;3.07;1.40;;;17.20;99.90;;;;;;5052525;28;20474;-79
2022/05/21 06:20:34;;;;;;;2.70;1.20;;;17.40;99.90;;;;;;5070480;28;20424;-80
2022/05/21 06:23:00;;;;;;;2.80;1.60;;;17.30;99.90;;;;;;5052001;28;20463;-80
2022/05/21 06:25:26;;;;;;;1.43;1.03;;;17.30;99.90;;;;;;5051919;28;20304;-80
2022/05/21 06:27:52;;;;;;;4.70;1.47;;;17.40;99.90;;;;;;5034886;28;20228;-80
2022/05/21 06:30:21;;;;;;;3.10;1.43;;;17.30;99.90;;;;;;5035337;28;20424;-79
2022/05/21 06:32:47;;;;;;;1.37;1.23;;;17.40;99.90;;;;;;5051927;28;20509;-80
2022/05/21 06:35:15;;;;;;;2.93;1.50;;;17.50;99.90;;;;;;5069921;28;20426;-80
2022/05/21 06:37:40;;;;;;;1.90;1.47;;;17.60;99.90;;;;;;5069365;28;20832;-79
2022/05/21 06:40:08;;;;;;;3.70;1.70;;;17.60;99.90;;;;;;5069532;28;20412;-79
2022/05/21 06:42:34;;;;;;;1.13;1.03;;;17.50;99.90;;;;;;5048613;28;20207;-79
2022/05/21 06:45:00;;;;;;;5.70;1.20;;;17.50;99.90;;;;;;5014654;28;20429;-79
2022/05/21 06:47:26;;;;;;;1.27;1.00;;;17.50;99.90;;;;;;5030871;28;20448;-79
2022/05/21 06:49:54;;;;;;;1.80;1.50;;;17.60;99.90;;;;;;5031034;28;20518;-79
2022/05/21 06:52:20;;;;;;;1.50;0.90;;;17.70;99.90;;;;;;5049390;28;20992;-80
2022/05/21 06:54:45;;;;;;;3.93;1.23;;;17.70;99.90;;;;;;5015413;28;20422;-80
2022/05/21 06:57:13;;;;;;;3.80;1.10;;;17.80;99.90;;;;;;5049678;28;20294;-80
2022/05/21 06:59:39;;;;;;;1.63;0.90;;;17.80;99.30;;;;;;5031912;28;20308;-80
2022/05/21 07:02:05;;;;;;;2.23;1.20;;;17.80;98.80;;;;;;5049566;28;20531;-79
2022/05/21 07:10:10;;;;;;;2.03;1.00;;;17.80;99.90;;;;;;5049767;28;20494;-79
2022/05/21 07:12:36;;;;;;;2.80;0.93;;;18.00;98.60;;;;;;5049384;28;20446;-79
2022/05/21 07:15:04;;;;;;;1.90;1.17;;;17.90;98.60;;;;;;5049725;28;20415;-79
2022/05/21 07:17:30;;;;;;;2.50;0.90;;;18.00;98.80;;;;;;5049283;28;20464;-80
2022/05/21 07:19:56;;;;;;;1.83;1.00;;;18.00;98.70;;;;;;5014951;28;21243;-80
2022/05/21 07:22:22;;;;;;;5.13;1.17;;;18.00;99.30;;;;;;5049362;28;20452;-80
2022/05/21 07:24:48;;;;;;;1.83;1.00;;;18.00;99.60;;;;;;5031870;28;20419;-80
2022/05/21 07:27:14;;;;;;;1.10;1.00;;;18.00;99.30;;;;;;5035278;28;20188;-80
2022/05/21 07:29:40;;;;;;;1.30;0.80;;;18.10;99.80;;;;;;5035587;28;20426;-80
2022/05/21 07:32:15;;;;;;;1.57;1.03;;;17.90;98.70;;;;;;5053362;28;20860;-79
2022/05/21 07:34:41;;;;;;;1.10;0.90;;;17.90;99.50;;;;;;5053373;28;20425;-79
2022/05/21 07:37:06;;;;;;;3.20;0.90;;;18.00;99.90;;;;;;5035116;28;20464;-79
2022/05/21 07:39:32;;;;;;;3.13;1.00;;;17.90;99.10;;;;;;5053118;28;20213;-80
2022/05/21 07:41:57;;;;;;;1.33;0.80;;;18.00;99.90;;;;;;5034973;28;20205;-80
2022/05/21 07:44:23;;;;;;;2.13;1.20;;;18.10;99.90;;;;;;5052337;28;20199;-80
2022/05/21 07:46:49;;;;;;;2.20;1.30;;;18.10;99.90;;;;;;5072699;28;20187;-80
2022/05/21 07:49:15;;;;;;;0.93;0.83;;;18.20;99.90;;;;;;5072999;28;20716;-80
2022/05/21 07:51:40;;;;;;;1.83;1.00;;;18.20;99.50;;;;;;5055474;28;20192;-80
2022/05/21 07:54:06;;;;;;;3.27;1.07;;;18.30;99.90;;;;;;5056638;28;20247;-80
2022/05/21 07:56:32;;;;;;;2.40;1.20;;;18.40;99.80;;;;;;5055775;28;20588;-80
2022/05/21 07:58:58;;;;;;;3.43;1.13;;;18.40;99.60;;;;;;5056161;28;20196;-80
2022/05/21 08:01:23;;;;;;;2.10;1.10;;;18.30;99.30;;;;;;5073966;28;20285;-80
2022/05/21 08:03:49;;;;;;;2.80;1.00;;;18.40;99.40;;;;;;5074493;28;20198;-80
2022/05/21 08:06:16;;;;;;;2.80;0.80;;;18.40;99.40;;;;;;5055040;28;20273;-80
2022/05/21 08:08:42;;;;;;;2.30;1.50;;;18.40;99.30;;;;;;5055288;28;20236;-80
2022/05/21 08:11:08;;;;;;;1.20;1.00;;;18.60;99.10;;;;;;5074136;28;20424;-80
2022/05/21 08:13:34;;;;;;;3.67;1.07;;;18.80;99.90;;;;;;5073297;28;20444;-80
2022/05/21 08:16:01;;;;;;;2.20;1.10;;;18.90;97.50;;;;;;5055252;28;20177;-80
2022/05/21 08:18:28;;;;;;;1.93;0.70;;;19.00;99.70;;;;;;5056644;28;20475;-80
2022/05/21 08:20:54;;;;;;;1.50;1.10;;;19.10;99.10;;;;;;5074252;28;20427;-80
2022/05/21 08:28:49;;;;;;;0.90;0.80;;;19.50;96.80;;;;;;5059056;28;20427;-80
2022/05/21 08:31:16;;;;;;;1.63;0.70;;;19.50;94.90;;;;;;5075014;28;20847;-80
2022/05/21 08:33:42;;;;;;;1.00;0.90;;;19.60;95.10;;;;;;5056011;28;20453;-80
2022/05/21 08:36:08;;;;;;;1.47;0.70;;;19.70;96.00;;;;;;5073028;28;20431;-80
2022/05/21 08:38:34;;;;;;;2.90;1.13;;;19.80;97.40;;;;;;5054338;28;20490;-80
2022/05/21 08:41:10;;;;;;;1.87;0.60;;;19.90;95.70;;;;;;5037495;28;20420;-80
2022/05/21 08:43:55;;;;;;;2.07;0.80;;;19.90;96.00;;;;;;5053423;28;20507;-80
2022/05/21 08:46:40;;;;;;;1.37;0.70;;;20.10;95.60;;;;;;5053468;28;20420;-80
2022/05/21 08:49:34;;;;;;;1.93;1.00;;;20.30;96.30;;;;;;5053324;28;20519;-80
2022/05/21 08:52:17;;;;;;;1.63;0.63;;;20.60;95.30;;;;;;5025589;28;21120;-80
2022/05/21 08:54:45;;;;;;;1.30;0.90;;;20.80;95.00;;;;;;5070973;28;20504;-80
2022/05/21 08:57:21;;;;;;;1.20;0.63;;;20.90;93.60;;;;;;5052813;28;20473;-80
2022/05/21 09:00:04;;;;;;;1.30;0.90;;;20.90;92.40;;;;;;5070968;28;20445;-80
2022/05/21 09:02:32;;;;;;;1.20;0.53;;;21.10;92.00;;;;;;5070799;28;20524;-80
2022/05/21 09:04:59;;;;;;;1.17;0.60;;;21.10;92.20;;;;;;5052337;28;20445;-80
2022/05/21 09:07:29;;;;;;;2.90;0.70;;;21.40;91.20;;;;;;5036030;28;20437;-81
2022/05/21 09:10:43;;;;;;;1.67;0.63;;;21.50;90.50;;;;;;5070694;28;20898;-80
2022/05/21 09:13:20;;;;;;;1.87;0.70;;;21.80;91.80;;;;;;5008103;28;20547;-81
2022/05/21 09:18:33;;;;;;;0.90;0.70;;;22.30;90.10;;;;;;5053174;28;20490;-80
2022/05/21 09:21:08;;;;;;;2.23;0.70;;;22.60;89.70;;;;;;5054351;28;20425;-81
2022/05/21 09:23:54;;;;;;;1.33;0.80;;;22.80;90.40;;;;;;5053906;28;20449;-81
2022/05/21 09:26:22;;;;;;;5.37;0.90;;;23.20;88.40;;;;;;5072501;28;20414;-81
2022/05/21 09:28:49;;;;;;;3.73;1.20;;;23.40;83.20;;;;;;5072441;28;20425;-81
2022/05/21 09:31:27;;;;;;;1.77;0.70;;;23.50;85.90;;;;;;5053856;28;20428;-81
2022/05/21 09:33:55;;;;;;;1.23;0.90;;;23.70;83.40;;;;;;5071385;28;20889;-81
2022/05/21 09:36:33;;;;;;;1.23;0.87;;;23.90;84.50;;;;;;5054099;28;20483;-81
2022/05/21 09:38:58;;;;;;;2.27;1.00;;;24.20;85.90;;;;;;5072491;28;20469;-81
2022/05/21 09:41:32;;;;;;;1.33;1.00;;;24.20;83.50;;;;;;5072541;28;20995;-81
2022/05/21 09:47:15;;;;;;;3.13;0.93;;;24.40;79.30;;;;;;5072289;28;20429;-81
2022/05/21 09:49:42;;;;;;;1.90;0.90;;;24.50;81.80;;;;;;5071489;28;20469;-81
2022/05/21 09:52:21;;;;;;;7.60;1.00;;;24.70;79.00;;;;;;5071596;28;20943;-81
2022/05/21 09:54:47;;;;;;;2.23;0.80;;;24.70;79.50;;;;;;5071717;28;20416;-81
2022/05/21 09:57:25;;;;;;;2.20;0.80;;;24.20;77.70;;;;;;5052420;28;20491;-81
2022/05/21 10:00:04;;;;;;;1.70;0.70;;;23.70;82.10;;;;;;5071041;28;20411;-81
2022/05/21 10:02:43;;;;;;;5.33;0.70;;;23.60;84.80;;;;;;5052545;28;21023;-81
2022/05/21 10:05:12;;;;;;;1.20;0.80;;;23.80;85.60;;;;;;5052797;28;20459;-81
2022/05/21 10:10:58;;;;;;;2.30;0.80;;;24.30;78.60;;;;;;5071000;28;20392;-81
2022/05/21 10:13:34;;;;;;;4.50;0.90;;;24.70;81.80;;;;;;5070650;28;20477;-82
2022/05/21 10:16:28;;;;;;;1.40;0.60;;;24.90;77.00;;;;;;5052484;28;20531;-80
2022/05/21 10:19:07;;;;;;;1.40;0.80;;;25.10;79.10;;;;;;5053275;28;20424;-81
2022/05/21 10:21:53;;;;;;;2.13;0.70;;;25.30;79.60;;;;;;5052537;28;20515;-81
2022/05/21 10:24:57;;;;;;;2.60;1.07;;;25.30;74.40;;;;;;5070482;28;20918;-81
2022/05/21 10:27:41;;;;;;;2.90;0.60;;;25.40;76.60;;;;;;5052438;28;21385;-81
2022/05/21 10:30:15;;;;;;;2.47;0.70;;;25.60;71.10;;;;;;5070345;28;20430;-81
2022/05/21 10:32:43;;;;;;;4.17;0.67;;;25.70;75.50;;;;;;5035414;28;20448;-81
2022/05/21 10:35:23;;;;;;;1.53;0.70;;;26.00;75.60;;;;;;5070446;28;20414;-81
2022/05/21 10:38:14;;;;;;;1.00;0.60;;;26.20;75.90;;;;;;5069987;28;20485;-81
2022/05/21 10:41:01;;;;;;;2.10;0.67;;;26.10;69.90;;;;;;5070487;28;20405;-81
2022/05/21 10:43:45;;;;;;;3.27;0.60;;;26.00;64.50;;;;;;5051424;28;20496;-81
2022/05/21 10:47:01;;;;;;;1.53;0.70;;;26.20;70.20;;;;;;5069980;28;20405;-81
2022/05/21 10:49:29;;;;;;;1.67;0.50;;;26.30;63.50;;;;;;4969377;28;20425;-81
2022/05/21 10:52:32;;;;;;;1.10;0.70;;;26.40;68.10;;;;;;5061491;28;20443;-81
2022/05/21 10:55:22;;;;;;;4.93;0.90;;;26.40;66.90;;;;;;5070384;28;21367;-81
2022/05/21 10:58:05;;;;;;;1.77;0.70;;;26.60;67.30;;;;;;5070266;28;20594;-80
2022/05/21 11:00:38;;;;;;;1.50;0.90;;;26.80;67.40;;;;;;5053558;28;20428;-81
2022/05/21 11:03:12;;;;;;;1.10;0.80;;;26.80;65.40;;;;;;5074415;28;21028;-81
2022/05/21 11:06:02;;;;;;;0.80;0.70;;;26.80;64.50;;;;;;5074163;28;20400;-81
2022/05/21 11:08:37;;;;;;;3.27;0.83;;;26.90;64.30;;;;;;5074511;28;20452;-81
2022/05/21 11:11:21;;;;;;;0.90;0.60;;;26.90;63.30;;;;;;5074367;28;20508;-80
2022/05/21 11:14:09;;;;;;;1.83;0.60;;;27.20;60.50;;;;;;5074329;28;20444;-80
2022/05/21 11:16:54;;;;;;;1.00;0.60;;;27.00;65.20;;;;;;5074521;28;20460;-81
2022/05/21 11:19:48;;;;;;;2.97;0.70;;;27.10;62.80;;;;;;5056519;28;20401;-81
2022/05/21 11:22:24;;;;;;;0.80;0.57;;;27.30;63.20;;;;;;5074421;28;20436;-81
2022/05/21 11:25:01;;;;;;;1.27;0.50;;;27.40;64.70;;;;;;5074512;28;20484;-81
2022/05/21 11:27:36;;;;;;;1.83;0.53;;;27.60;63.00;;;;;;5056303;28;20501;-80
2022/05/21 11:30:10;;;;;;;1.00;0.70;;;27.60;63.70;;;;;;5055818;28;20448;-81
2022/05/21 11:38:34;;;;;;;1.10;0.60;;;27.90;61.60;;;;;;5074593;28;20440;-82
2022/05/21 11:47:13;;;;;;;1.53;0.70;;;27.90;60.50;;;;;;5059618;28;20417;-82
2022/05/21 11:49:51;;;;;;;1.37;0.70;;;27.90;63.30;;;;;;5074643;28;20421;-81
2022/05/21 11:52:34;;;;;;;2.80;0.70;;;27.80;59.40;;;;;;5074519;28;20425;-81
2022/05/21 11:55:13;;;;;;;2.13;0.70;;;27.80;59.00;;;;;;5074728;28;20425;-81
2022/05/21 11:57:54;;;;;;;0.90;0.50;;;28.00;59.60;;;;;;5056224;28;20460;-81
2022/05/21 12:00:25;;;;;;;1.13;0.57;;;27.80;58.50;;;;;;5074240;28;20424;-82
2022/05/21 12:02:53;;;;;;;1.43;0.70;;;27.90;58.70;;;;;;5074649;28;20436;-81
2022/05/21 12:05:41;;;;;;;1.00;0.70;;;28.10;60.90;;;;;;5056133;28;20457;-82
2022/05/21 12:08:15;;;;;;;1.73;0.60;;;28.20;59.70;;;;;;5073769;28;20722;-82
2022/05/21 12:11:02;;;;;;;1.47;0.70;;;28.10;60.10;;;;;;5073752;28;20805;-81
2022/05/21 12:13:33;;;;;;;1.63;0.60;;;27.90;59.20;;;;;;5055758;28;20448;-82
2022/05/21 12:16:21;;;;;;;5.37;1.00;;;28.00;61.00;;;;;;5056007;28;20821;-81
2022/05/21 12:18:55;;;;;;;1.00;0.50;;;28.00;60.80;;;;;;5055362;28;20414;-81
2022/05/21 12:21:32;;;;;;;1.20;0.60;;;28.20;60.70;;;;;;5055335;28;20424;-82
2022/05/21 12:24:06;;;;;;;0.80;0.50;;;28.60;59.90;;;;;;5073127;28;20405;-82
2022/05/21 12:26:37;;;;;;;0.80;0.57;;;28.60;56.90;;;;;;5073258;28;20420;-81
2022/05/21 12:29:24;;;;;;;1.67;0.60;;;28.50;58.00;;;;;;5055547;28;20405;-82
2022/05/21 12:31:56;;;;;;;2.03;0.50;;;28.60;58.00;;;;;;5072952;28;20492;-81
2022/05/21 12:34:38;;;;;;;1.20;0.70;;;28.80;59.70;;;;;;5072939;28;20937;-81
2022/05/21 12:37:30;;;;;;;1.70;0.70;;;28.80;58.30;;;;;;5073044;28;20479;-81
2022/05/21 12:39:55;;;;;;;0.90;0.50;;;28.80;56.80;;;;;;5072567;28;21373;-80
2022/05/21 12:42:51;;;;;;;0.80;0.53;;;28.70;58.00;;;;;;5071287;28;20433;-81
2022/05/21 12:45:44;;;;;;;5.50;0.70;;;28.70;58.20;;;;;;5052615;28;20660;-81
2022/05/21 12:48:20;;;;;;;1.17;0.60;;;28.80;54.60;;;;;;5034654;28;20477;-81
2022/05/21 12:50:57;;;;;;;1.13;0.70;;;28.70;53.40;;;;;;5034149;28;20483;-81
2022/05/21 12:53:36;;;;;;;0.80;0.50;;;28.60;56.10;;;;;;5051867;28;20564;-81
2022/05/21 12:56:03;;;;;;;1.10;0.60;;;27.90;56.70;;;;;;5033729;28;20485;-81
2022/05/21 12:58:30;;;;;;;2.40;0.80;;;27.60;56.90;;;;;;5033997;28;20461;-81
2022/05/21 13:00:57;;;;;;;1.40;0.70;;;27.70;57.60;;;;;;5051762;28;20965;-82
2022/05/21 13:03:24;;;;;;;2.40;0.80;;;27.90;59.40;;;;;;5051690;28;21004;-81
2022/05/21 13:05:54;;;;;;;1.33;0.70;;;27.90;59.90;;;;;;5052017;28;20468;-82
2022/05/21 13:08:22;;;;;;;1.30;0.80;;;27.70;60.50;;;;;;5051541;28;20430;-82
2022/05/21 13:11:16;;;;;;;4.30;0.73;;;27.60;61.30;;;;;;5033618;28;20429;-81
2022/05/21 13:13:45;;;;;;;2.07;1.03;;;27.60;61.10;;;;;;5051590;28;20500;-81
2022/05/21 13:16:19;;;;;;;1.83;0.70;;;27.40;62.60;;;;;;5017265;28;20441;-82
2022/05/21 13:19:19;;;;;;;1.53;0.77;;;27.30;61.60;;;;;;5033088;28;20477;-81
2022/05/21 13:21:53;;;;;;;2.80;1.10;;;27.30;62.20;;;;;;5050871;28;20515;-82
2022/05/21 13:24:31;;;;;;;1.50;0.77;;;27.30;63.30;;;;;;5031968;28;20426;-82
2022/05/21 13:27:11;;;;;;;5.80;0.80;;;27.50;63.10;;;;;;5050477;28;20433;-82
2022/05/21 13:29:38;;;;;;;4.10;1.00;;;27.30;60.50;;;;;;5050683;28;20421;-82
2022/05/21 13:32:26;;;;;;;1.93;0.80;;;27.30;61.50;;;;;;5050531;28;20446;-82
2022/05/21 13:34:57;;;;;;;6.20;1.27;;;27.40;61.60;;;;;;5050486;28;20514;-82
2022/05/21 13:37:38;;;;;;;1.20;0.60;;;27.50;64.70;;;;;;5050544;28;20509;-82
2022/05/21 13:40:13;;;;;;;1.17;0.60;;;27.50;63.00;;;;;;5050322;28;20410;-82
2022/05/21 13:42:43;;;;;;;1.57;0.80;;;27.30;62.70;;;;;;5053083;28;21274;-81
2022/05/21 13:45:16;;;;;;;3.13;1.10;;;27.50;63.70;;;;;;5052458;28;21204;-82
2022/05/21 13:47:51;;;;;;;2.80;0.90;;;27.50;61.20;;;;;;5052190;28;20492;-82
2022/05/21 13:50:20;;;;;;;1.50;0.60;;;27.50;61.70;;;;;;5071470;28;20485;-82